createdAt,value
2019-03-11T00:02:24.959Z,13.81
2019-03-11T00:04:55.938Z,13.44
2019-03-11T00:07:27.001Z,13.44
2019-03-11T00:09:58.072Z,13.33
2019-03-11T00:12:29.148Z,13.30
2019-03-11T00:15:00.661Z,13.02
2019-03-11T00:17:31.954Z,12.86
2019-03-11T00:20:04.248Z,12.85
2019-03-11T00:22:35.258Z,12.78
2019-03-11T00:25:07.220Z,12.81
2019-03-11T00:27:38.869Z,12.81
2019-03-11T00:30:10.826Z,12.86
2019-03-11T00:32:42.170Z,12.70
2019-03-11T00:35:13.558Z,12.82
2019-03-11T00:37:45.189Z,12.86
2019-03-11T00:40:16.554Z,12.91
2019-03-11T00:42:47.894Z,12.98
2019-03-11T00:45:19.388Z,12.96
2019-03-11T00:48:01.056Z,13.00
2019-03-11T00:50:23.931Z,13.11
2019-03-11T00:52:55.323Z,13.03
2019-03-11T00:55:26.732Z,13.01
2019-03-11T00:57:58.102Z,13.18
2019-03-11T01:00:32.176Z,13.12
2019-03-11T01:03:03.605Z,13.22
2019-03-11T01:05:34.912Z,13.19
2019-03-11T01:08:06.097Z,13.15
2019-03-11T01:10:37.141Z,13.13
2019-03-11T01:13:08.418Z,13.17
2019-03-11T01:15:39.470Z,12.96
2019-03-11T01:18:10.617Z,12.90
2019-03-11T01:20:42.792Z,12.98
2019-03-11T01:23:13.877Z,13.05
2019-03-11T01:25:45.172Z,13.07
2019-03-11T01:28:16.552Z,13.16
2019-03-11T01:30:47.574Z,13.12
2019-03-11T01:33:18.753Z,13.21
2019-03-11T01:35:49.992Z,13.15
2019-03-11T01:38:20.905Z,13.14
2019-03-11T01:40:52.019Z,13.10
2019-03-11T01:43:23.354Z,13.02
2019-03-11T01:45:54.687Z,13.12
2019-03-11T01:48:26.027Z,13.17
2019-03-11T01:50:56.943Z,13.21
2019-03-11T01:53:27.870Z,13.14
2019-03-11T01:56:00.021Z,13.12
2019-03-11T01:58:31.356Z,12.83
2019-03-11T02:01:02.413Z,12.82
2019-03-11T02:03:34.088Z,12.50
2019-03-11T02:06:05.503Z,12.30
2019-03-11T02:08:36.559Z,12.26
2019-03-11T02:11:08.170Z,12.13
2019-03-11T02:13:39.383Z,12.06
2019-03-11T02:16:10.880Z,11.92
2019-03-11T02:18:41.950Z,11.88
2019-03-11T02:21:13.367Z,11.77
2019-03-11T02:23:44.901Z,11.69
2019-03-11T02:26:16.303Z,11.70
2019-03-11T02:28:47.678Z,11.56
2019-03-11T02:31:19.453Z,11.31
2019-03-11T02:33:50.925Z,11.31
2019-03-11T02:36:22.498Z,11.30
2019-03-11T02:38:54.222Z,11.33
2019-03-11T02:41:25.656Z,11.33
2019-03-11T02:43:57.399Z,11.26
2019-03-11T02:46:28.949Z,11.26
2019-03-11T02:49:00.435Z,11.27
2019-03-11T02:51:32.159Z,11.29
2019-03-11T02:54:03.629Z,11.35
2019-03-11T02:56:35.249Z,11.39
2019-03-11T02:59:06.707Z,11.31
2019-03-11T03:01:52.169Z,11.29
2019-03-11T03:04:31.686Z,11.26
2019-03-11T03:07:03.182Z,11.20
2019-03-11T03:09:34.735Z,11.25
2019-03-11T03:12:06.399Z,11.35
2019-03-11T03:14:37.989Z,11.42
2019-03-11T03:17:09.215Z,11.35
2019-03-11T03:19:40.924Z,11.41
2019-03-11T03:22:12.467Z,11.32
2019-03-11T03:24:43.919Z,11.14
2019-03-11T03:27:15.465Z,11.18
2019-03-11T03:29:47.069Z,11.10
2019-03-11T03:32:18.616Z,11.11
2019-03-11T03:34:50.297Z,11.13
2019-03-11T03:37:21.502Z,11.16
2019-03-11T03:39:52.903Z,11.16
2019-03-11T03:42:24.472Z,11.23
2019-03-11T03:45:21.849Z,11.22
2019-03-11T03:47:53.429Z,11.24
2019-03-11T03:50:25.132Z,11.29
2019-03-11T03:52:56.733Z,11.29
2019-03-11T03:55:28.350Z,11.35
2019-03-11T03:57:59.618Z,11.37
2019-03-11T04:00:31.476Z,11.27
2019-03-11T04:03:03.148Z,11.19
2019-03-11T04:05:34.815Z,11.02
2019-03-11T04:08:06.519Z,11.01
2019-03-11T04:10:38.218Z,11.03
2019-03-11T04:13:10.001Z,10.99
2019-03-11T04:15:42.587Z,11.02
2019-03-11T04:18:14.240Z,11.02
2019-03-11T04:20:45.862Z,10.87
2019-03-11T04:23:17.517Z,10.83
2019-03-11T04:25:49.290Z,10.79
2019-03-11T04:28:20.833Z,10.87
2019-03-11T04:30:52.312Z,10.85
2019-03-11T04:33:23.903Z,10.77
2019-03-11T04:35:55.231Z,10.73
2019-03-11T04:38:26.836Z,10.78
2019-03-11T04:40:58.474Z,10.74
2019-03-11T04:43:29.948Z,10.73
2019-03-11T04:46:01.461Z,10.74
2019-03-11T04:48:33.007Z,10.84
2019-03-11T04:51:04.567Z,10.84
2019-03-11T04:53:35.986Z,10.92
2019-03-11T04:56:07.207Z,10.96
2019-03-11T04:58:38.853Z,10.97
2019-03-11T05:01:10.405Z,11.04
2019-03-11T05:03:41.767Z,11.08
2019-03-11T05:06:13.020Z,11.08
2019-03-11T05:08:44.806Z,10.94
2019-03-11T05:11:16.475Z,10.97
2019-03-11T05:13:48.217Z,11.01
2019-03-11T05:16:19.892Z,11.02
2019-03-11T05:18:51.442Z,11.10
2019-03-11T05:21:23.058Z,11.11
2019-03-11T05:23:54.908Z,11.06
2019-03-11T05:26:27.089Z,11.14
2019-03-11T05:28:58.392Z,11.16
2019-03-11T05:31:30.119Z,11.23
2019-03-11T05:34:01.729Z,11.26
2019-03-11T05:36:33.169Z,11.45
2019-03-11T05:39:05.680Z,11.48
2019-03-11T05:41:37.377Z,11.52
2019-03-11T05:44:09.079Z,11.53
2019-03-11T05:46:40.643Z,11.50
2019-03-11T05:49:12.046Z,11.37
2019-03-11T05:51:43.792Z,11.21
2019-03-11T05:54:15.339Z,11.04
2019-03-11T05:56:46.694Z,10.99
2019-03-11T05:59:18.278Z,11.29
2019-03-11T06:01:49.748Z,11.67
2019-03-11T06:04:21.284Z,12.02
2019-03-11T06:06:53.160Z,12.29
2019-03-11T06:09:24.349Z,12.72
2019-03-11T06:11:55.769Z,12.95
2019-03-11T06:14:27.067Z,13.36
2019-03-11T06:16:58.442Z,14.21
2019-03-11T06:19:29.676Z,14.60
2019-03-11T06:22:10.607Z,14.71
2019-03-11T06:24:41.767Z,14.84
2019-03-11T06:27:12.997Z,15.39
2019-03-11T06:29:45.238Z,15.92
2019-03-11T06:32:16.336Z,15.92
2019-03-11T06:34:47.558Z,15.94
2019-03-11T06:37:18.989Z,15.77
2019-03-11T06:39:50.196Z,15.59
2019-03-11T06:42:21.476Z,15.39
2019-03-11T06:44:52.430Z,15.11
2019-03-11T06:47:23.617Z,15.18
2019-03-11T06:49:54.660Z,15.19
2019-03-11T06:52:25.616Z,15.58
2019-03-11T06:54:58.095Z,15.81
2019-03-11T06:57:29.442Z,15.97
2019-03-11T07:00:01.784Z,16.00
2019-03-11T07:02:32.936Z,16.24
2019-03-11T07:05:04.245Z,16.11
2019-03-11T07:07:35.610Z,16.06
2019-03-11T07:10:07.800Z,15.88
2019-03-11T07:12:39.040Z,16.25
2019-03-11T07:15:10.989Z,16.77
2019-03-11T07:17:42.514Z,16.77
2019-03-11T07:20:14.001Z,17.25
2019-03-11T07:22:45.490Z,17.43
2019-03-11T07:25:16.904Z,17.43
2019-03-11T07:27:48.263Z,17.86
2019-03-11T07:30:19.777Z,17.83
2019-03-11T07:32:53.144Z,17.77
2019-03-11T07:35:24.689Z,18.37
2019-03-11T07:37:56.069Z,18.20
2019-03-11T07:40:30.077Z,18.51
2019-03-11T07:43:00.723Z,18.15
2019-03-11T07:45:32.113Z,18.05
2019-03-11T07:48:03.135Z,17.98
2019-03-11T07:50:34.496Z,17.66
2019-03-11T07:53:06.030Z,18.12
2019-03-11T07:55:38.483Z,18.31
2019-03-11T07:58:09.784Z,18.38
2019-03-11T08:00:40.967Z,18.31
2019-03-11T08:03:12.486Z,18.41
2019-03-11T08:05:43.902Z,18.62
2019-03-11T08:08:15.343Z,18.66
2019-03-11T08:10:46.873Z,18.68
2019-03-11T08:13:18.232Z,18.46
2019-03-11T08:15:49.775Z,18.64
2019-03-11T08:18:21.241Z,18.76
2019-03-11T08:20:52.253Z,18.97
2019-03-11T08:23:23.712Z,19.09
2019-03-11T08:25:55.080Z,19.28
2019-03-11T08:28:26.313Z,19.48
2019-03-11T08:30:57.648Z,19.04
2019-03-11T08:33:28.944Z,19.02
2019-03-11T08:36:00.325Z,18.63
2019-03-11T08:38:31.590Z,18.40
2019-03-11T08:41:02.879Z,18.87
2019-03-11T08:43:34.223Z,18.56
2019-03-11T08:46:05.600Z,18.20
2019-03-11T08:48:36.776Z,18.20
2019-03-11T08:51:08.242Z,17.34
2019-03-11T08:53:39.277Z,17.11
2019-03-11T08:56:10.429Z,16.84
2019-03-11T08:58:41.806Z,16.84
2019-03-11T09:01:12.987Z,16.58
2019-03-11T09:03:44.196Z,16.57
2019-03-11T09:06:15.290Z,16.84
2019-03-11T09:08:46.479Z,16.84
2019-03-11T09:11:17.753Z,17.28
2019-03-11T09:13:49.405Z,17.67
2019-03-11T09:16:20.998Z,17.49
2019-03-11T09:18:52.418Z,17.15
2019-03-11T09:21:23.688Z,17.67
2019-03-11T09:23:54.953Z,18.30
2019-03-11T09:26:26.443Z,18.21
2019-03-11T09:28:57.514Z,18.19
2019-03-11T09:31:28.782Z,17.77
2019-03-11T09:34:00.091Z,17.80
2019-03-11T09:36:31.359Z,17.83
2019-03-11T09:39:02.720Z,17.61
2019-03-11T09:41:35.564Z,17.33
2019-03-11T09:44:06.856Z,17.64
2019-03-11T09:46:38.150Z,18.35
2019-03-11T09:49:09.578Z,18.35
2019-03-11T09:51:40.945Z,18.49
2019-03-11T09:54:12.357Z,18.14
2019-03-11T09:56:44.205Z,17.82
2019-03-11T09:59:15.690Z,17.74
2019-03-11T10:01:47.044Z,17.74
2019-03-11T10:04:18.378Z,17.73
2019-03-11T10:06:49.763Z,17.54
2019-03-11T10:09:22.473Z,17.38
2019-03-11T10:11:53.902Z,17.25
2019-03-11T10:14:25.352Z,16.79
2019-03-11T10:16:56.996Z,16.73
2019-03-11T10:19:28.338Z,16.73
2019-03-11T10:21:59.792Z,16.55
2019-03-11T10:24:31.267Z,16.42
2019-03-11T10:27:02.524Z,16.39
2019-03-11T10:29:33.902Z,16.39
2019-03-11T10:32:05.244Z,16.57
2019-03-11T10:34:36.740Z,16.57
2019-03-11T10:37:08.030Z,16.76
2019-03-11T10:39:39.407Z,16.80
2019-03-11T10:42:10.489Z,16.98
2019-03-11T10:44:41.775Z,17.03
2019-03-11T10:47:12.856Z,17.07
2019-03-11T10:49:43.983Z,17.48
2019-03-11T10:52:15.288Z,17.54
2019-03-11T10:54:46.779Z,17.51
2019-03-11T10:57:18.171Z,17.33
2019-03-11T10:59:49.496Z,17.09
2019-03-11T11:02:20.863Z,17.16
2019-03-11T11:04:52.197Z,17.05
2019-03-11T11:07:23.709Z,16.76
2019-03-11T11:09:54.994Z,16.76
2019-03-11T11:12:26.224Z,16.89
2019-03-11T11:14:57.676Z,16.89
2019-03-11T11:17:28.979Z,17.22
2019-03-11T11:20:03.650Z,17.27
2019-03-11T11:22:35.054Z,17.27
2019-03-11T11:25:06.839Z,17.45
2019-03-11T11:27:38.327Z,17.72
2019-03-11T11:30:12.760Z,17.71
2019-03-11T11:32:44.068Z,17.57
2019-03-11T11:35:17.044Z,17.24
2019-03-11T11:37:48.625Z,17.19
2019-03-11T11:40:24.258Z,17.33
2019-03-11T11:42:55.927Z,17.45
2019-03-11T11:45:27.268Z,17.56
2019-03-11T11:47:59.763Z,17.67
2019-03-11T11:50:31.115Z,17.59
2019-03-11T11:53:02.074Z,17.48
2019-03-11T11:55:33.242Z,17.74
2019-03-11T11:58:04.201Z,18.04
2019-03-11T12:00:36.173Z,18.58
2019-03-11T12:03:07.235Z,18.63
2019-03-11T12:05:38.223Z,18.37
2019-03-11T12:08:09.359Z,18.65
2019-03-11T12:10:40.433Z,18.87
2019-03-11T12:13:11.609Z,18.25
2019-03-11T12:15:42.869Z,18.23
2019-03-11T12:18:15.698Z,18.11
2019-03-11T12:20:47.110Z,17.97
2019-03-11T12:23:18.759Z,18.04
2019-03-11T12:25:49.835Z,18.04
2019-03-11T12:28:20.884Z,18.07
2019-03-11T12:30:52.044Z,17.77
2019-03-11T12:33:23.317Z,17.73
2019-03-11T12:35:54.540Z,17.53
2019-03-11T12:38:25.803Z,17.39
2019-03-11T12:40:56.983Z,17.41
2019-03-11T12:43:28.268Z,17.34
2019-03-11T12:45:59.271Z,17.55
2019-03-11T12:48:30.688Z,17.50
2019-03-11T12:51:01.779Z,17.63
2019-03-11T12:53:33.297Z,17.79
2019-03-11T12:56:05.795Z,17.46
2019-03-11T12:58:41.401Z,17.26
2019-03-11T13:01:10.010Z,17.28
2019-03-11T13:03:41.409Z,17.44
2019-03-11T13:06:13.050Z,17.55
2019-03-11T13:08:44.306Z,17.60
2019-03-11T13:11:15.632Z,17.95
2019-03-11T13:13:46.832Z,18.16
2019-03-11T13:16:18.209Z,18.22
2019-03-11T13:18:51.195Z,18.03
2019-03-11T13:21:28.261Z,17.90
2019-03-11T13:23:59.560Z,17.77
2019-03-11T13:26:30.862Z,17.79
2019-03-11T13:29:02.175Z,17.85
2019-03-11T13:31:33.440Z,17.74
2019-03-11T13:34:04.997Z,17.88
2019-03-11T13:36:36.497Z,17.83
2019-03-11T13:39:09.743Z,17.52
2019-03-11T13:41:41.257Z,17.57
2019-03-11T13:44:12.823Z,17.66
2019-03-11T13:46:44.064Z,17.08
2019-03-11T13:49:15.257Z,17.06
2019-03-11T13:51:46.752Z,16.65
2019-03-11T13:54:17.780Z,16.65
2019-03-11T13:56:49.089Z,16.28
2019-03-11T13:59:20.519Z,16.28
2019-03-11T14:01:51.945Z,16.10
2019-03-11T14:04:23.375Z,15.73
2019-03-11T14:06:54.756Z,15.73
2019-03-11T14:09:25.912Z,15.75
2019-03-11T14:11:57.149Z,15.69
2019-03-11T14:14:28.344Z,15.50
2019-03-11T14:16:59.679Z,15.36
2019-03-11T14:19:30.933Z,15.25
2019-03-11T14:22:04.898Z,15.10
2019-03-11T14:24:36.206Z,14.99
2019-03-11T14:27:07.448Z,14.94
2019-03-11T14:29:38.939Z,14.90
2019-03-11T14:32:10.629Z,15.00
2019-03-11T14:34:41.891Z,14.80
2019-03-11T14:37:13.503Z,14.63
2019-03-11T14:39:44.939Z,14.60
2019-03-11T14:42:16.247Z,14.36
2019-03-11T14:44:47.409Z,14.14
2019-03-11T14:47:18.634Z,14.21
2019-03-11T14:49:49.708Z,14.08
2019-03-11T14:52:20.941Z,13.86
2019-03-11T14:54:52.292Z,13.66
2019-03-11T14:57:23.757Z,13.67
2019-03-11T14:59:54.877Z,13.51
2019-03-11T15:02:26.154Z,13.28
2019-03-11T15:04:57.611Z,13.18
2019-03-11T15:07:28.979Z,12.90
2019-03-11T15:10:00.059Z,12.88
2019-03-11T15:12:31.851Z,12.74
2019-03-11T15:15:03.759Z,12.46
2019-03-11T15:17:35.132Z,12.44
2019-03-11T15:20:07.161Z,12.19
2019-03-11T15:22:38.882Z,11.84
2019-03-11T15:25:11.979Z,11.64
2019-03-11T15:27:43.433Z,11.46
2019-03-11T15:30:16.589Z,11.48
2019-03-11T15:32:48.201Z,11.34
2019-03-11T15:35:20.593Z,11.32
2019-03-11T15:37:53.219Z,11.04
2019-03-11T15:40:24.595Z,10.99
2019-03-11T15:42:58.451Z,10.97
2019-03-11T15:45:37.987Z,10.69
2019-03-11T15:48:03.643Z,10.58
2019-03-11T15:50:35.438Z,10.58
2019-03-11T15:53:06.902Z,10.53
2019-03-11T15:55:38.681Z,10.39
2019-03-11T15:58:10.104Z,10.40
2019-03-11T16:00:41.807Z,10.22
2019-03-11T16:03:13.571Z,10.03
2019-03-11T16:05:45.055Z,9.97
2019-03-11T16:08:16.673Z,9.97
2019-03-11T16:10:48.086Z,9.94
2019-03-11T16:13:19.622Z,9.86
2019-03-11T16:15:51.278Z,9.84
2019-03-11T16:18:22.799Z,9.72
2019-03-11T16:20:57.145Z,9.63
2019-03-11T16:23:28.448Z,9.58
2019-03-11T16:25:59.919Z,9.64
2019-03-11T16:28:31.540Z,9.29
2019-03-11T16:31:02.908Z,9.24
2019-03-11T16:33:34.339Z,9.19
2019-03-11T16:36:05.626Z,8.94
2019-03-11T16:38:36.972Z,8.89
2019-03-11T16:41:08.502Z,8.83
2019-03-11T16:43:39.764Z,8.75
2019-03-11T16:46:11.285Z,8.51
2019-03-11T16:48:42.745Z,8.53
2019-03-11T16:51:13.985Z,8.31
2019-03-11T16:53:45.216Z,8.42
2019-03-11T16:56:16.888Z,8.30
2019-03-11T16:58:48.071Z,8.40
2019-03-11T17:01:19.383Z,8.36
2019-03-11T17:03:50.753Z,8.22
2019-03-11T17:06:22.429Z,8.35
2019-03-11T17:08:53.906Z,8.22
2019-03-11T17:11:25.283Z,8.09
2019-03-11T17:13:57.567Z,7.97
2019-03-11T17:16:28.735Z,7.82
2019-03-11T17:19:01.407Z,7.90
2019-03-11T17:21:33.047Z,7.83
2019-03-11T17:24:04.538Z,7.69
2019-03-11T17:26:35.816Z,7.73
2019-03-11T17:29:07.101Z,7.82
2019-03-11T17:31:38.617Z,7.75
2019-03-11T17:34:09.993Z,7.39
2019-03-11T17:36:41.456Z,7.48
2019-03-11T17:39:13.108Z,7.35
2019-03-11T17:41:45.402Z,7.16
2019-03-11T17:44:17.165Z,7.18
2019-03-11T17:46:48.730Z,7.17
2019-03-11T17:49:20.211Z,7.11
2019-03-11T17:51:51.836Z,6.86
2019-03-11T17:54:23.329Z,6.78
2019-03-11T17:56:54.796Z,6.78
2019-03-11T17:59:26.196Z,6.78
2019-03-11T18:01:57.882Z,6.68
2019-03-11T18:04:29.313Z,6.72
2019-03-11T18:07:00.867Z,6.83
2019-03-11T18:09:32.307Z,6.81
2019-03-11T18:12:03.972Z,6.76
2019-03-11T18:14:35.498Z,6.72
2019-03-11T18:17:06.982Z,6.68
2019-03-11T18:19:38.238Z,6.67
2019-03-11T18:22:09.582Z,6.64
2019-03-11T18:24:41.036Z,6.54
2019-03-11T18:27:12.509Z,6.59
2019-03-11T18:29:43.953Z,6.68
2019-03-11T18:32:16.498Z,6.63
2019-03-11T18:34:48.009Z,6.53
2019-03-11T18:37:19.384Z,6.32
2019-03-11T18:39:50.646Z,6.48
2019-03-11T18:42:26.282Z,6.32
2019-03-11T18:44:54.995Z,6.22
2019-03-11T18:47:26.448Z,6.25
2019-03-11T18:49:57.703Z,6.19
2019-03-11T18:52:29.406Z,6.25
2019-03-11T18:55:00.868Z,6.22
2019-03-11T18:57:32.031Z,6.23
2019-03-11T19:00:03.645Z,6.31
2019-03-11T19:02:36.819Z,6.31
2019-03-11T19:05:09.699Z,6.24
2019-03-11T19:07:41.237Z,6.18
2019-03-11T19:10:12.960Z,6.21
2019-03-11T19:12:44.440Z,6.13
2019-03-11T19:15:17.641Z,5.96
2019-03-11T19:17:49.224Z,5.88
2019-03-11T19:20:20.842Z,5.96
2019-03-11T19:22:52.444Z,5.96
2019-03-11T19:25:23.948Z,5.91
2019-03-11T19:27:55.701Z,5.96
2019-03-11T19:30:27.327Z,6.05
2019-03-11T19:32:58.876Z,5.74
2019-03-11T19:35:30.419Z,5.80
2019-03-11T19:38:02.205Z,5.93
2019-03-11T19:40:33.667Z,5.81
2019-03-11T19:43:05.220Z,5.84
2019-03-11T19:45:36.922Z,5.81
2019-03-11T19:48:08.751Z,5.88
2019-03-11T19:50:40.123Z,5.71
2019-03-11T19:53:11.777Z,5.60
2019-03-11T19:55:43.517Z,5.58
2019-03-11T19:58:14.969Z,5.40
2019-03-11T20:00:46.501Z,5.36
2019-03-11T20:03:23.977Z,5.39
2019-03-11T20:05:53.806Z,5.36
2019-03-11T20:08:24.292Z,5.52
2019-03-11T20:10:55.802Z,5.52
2019-03-11T20:13:27.320Z,5.44
2019-03-11T20:15:58.660Z,5.48
2019-03-11T20:18:30.436Z,5.47
2019-03-11T20:21:01.988Z,5.58
2019-03-11T20:23:33.686Z,5.59
2019-03-11T20:26:05.361Z,5.70
2019-03-11T20:28:36.760Z,5.74
2019-03-11T20:31:08.338Z,5.70
2019-03-11T20:33:39.908Z,5.67
2019-03-11T20:36:20.862Z,5.66
2019-03-11T20:38:44.609Z,5.52
2019-03-11T20:41:16.466Z,5.53
2019-03-11T20:43:47.766Z,5.60
2019-03-11T20:46:19.167Z,5.56
2019-03-11T20:48:50.607Z,5.44
2019-03-11T20:51:21.849Z,5.45
2019-03-11T20:53:53.218Z,5.52
2019-03-11T20:56:24.427Z,5.47
2019-03-11T20:58:55.813Z,5.52
2019-03-11T21:01:27.756Z,5.39
2019-03-11T21:03:59.284Z,5.49
2019-03-11T21:06:30.818Z,5.52
2019-03-11T21:09:02.361Z,5.43
2019-03-11T21:11:35.555Z,5.45
2019-03-11T21:14:08.829Z,5.31
2019-03-11T21:16:41.326Z,5.26
2019-03-11T21:19:12.617Z,5.43
2019-03-11T21:21:43.842Z,5.38
2019-03-11T21:24:15.570Z,5.25
2019-03-11T21:26:47.309Z,5.36
2019-03-11T21:29:19.011Z,5.35
2019-03-11T21:31:50.695Z,5.42
2019-03-11T21:34:22.894Z,5.44
2019-03-11T21:36:54.594Z,5.42
2019-03-11T21:39:26.159Z,5.35
2019-03-11T21:41:57.788Z,5.38
2019-03-11T21:44:29.432Z,5.20
2019-03-11T21:47:00.772Z,5.22
2019-03-11T21:49:32.192Z,5.07
2019-03-11T21:52:03.695Z,5.08
2019-03-11T21:54:35.432Z,5.08
2019-03-11T21:57:07.247Z,5.12
2019-03-11T21:59:38.969Z,5.10
2019-03-11T22:02:10.533Z,5.03
2019-03-11T22:04:41.829Z,5.05
2019-03-11T22:07:13.621Z,4.92
2019-03-11T22:09:45.366Z,5.13
2019-03-11T22:12:17.063Z,5.02
2019-03-11T22:14:48.628Z,5.02
2019-03-11T22:17:20.218Z,4.97
2019-03-11T22:19:51.969Z,4.93
2019-03-11T22:22:23.432Z,5.01
2019-03-11T22:24:54.809Z,4.79
2019-03-11T22:27:26.145Z,4.73
2019-03-11T22:29:57.797Z,4.87
2019-03-11T22:32:29.208Z,4.89
2019-03-11T22:35:12.194Z,4.76
2019-03-11T22:37:33.824Z,4.76
2019-03-11T22:40:06.074Z,4.87
2019-03-11T22:42:37.695Z,4.76
2019-03-11T22:45:10.245Z,4.76
2019-03-11T22:47:41.631Z,4.73
2019-03-11T22:50:13.083Z,4.73
2019-03-11T22:52:44.735Z,4.57
2019-03-11T22:55:17.088Z,4.71
2019-03-11T22:57:48.911Z,4.58
2019-03-11T23:00:32.646Z,4.64
2019-03-11T23:03:06.945Z,4.69
2019-03-11T23:05:56.513Z,4.67
2019-03-11T23:08:13.119Z,4.71
2019-03-11T23:10:44.834Z,4.74
2019-03-11T23:13:16.591Z,4.63
2019-03-11T23:15:48.172Z,4.46
2019-03-11T23:18:19.593Z,4.46
2019-03-11T23:20:51.029Z,4.42
2019-03-11T23:23:22.242Z,4.43
2019-03-11T23:25:53.618Z,4.48
2019-03-11T23:28:25.355Z,4.48
2019-03-11T23:30:57.196Z,4.54
2019-03-11T23:33:28.731Z,4.58
2019-03-11T23:36:00.072Z,4.62
2019-03-11T23:38:31.471Z,4.56
2019-03-11T23:41:02.914Z,4.40
2019-03-11T23:43:34.446Z,4.43
2019-03-11T23:46:05.772Z,4.42
2019-03-11T23:48:37.053Z,4.38
2019-03-11T23:51:08.270Z,4.25
2019-03-11T23:53:39.571Z,4.10
2019-03-11T23:56:10.973Z,4.07
2019-03-11T23:58:42.196Z,4.02
